Etusivu
METAR-TAF:

METAR-TAF

Lentoasemat :

Kuwait, Kuwait

Kuwaitin kansainvälinen lentoasema

Leveyspiiri: 29-13N, Pituuspiiri: 047-59E, korkeus merenpinnasta: 55 m

Tämänhetkinen sää

Tämä raportti tehtiin 57 minuuttia sitten, kello 23.00 UTC
Tuuli 14 kn etelästä
Lämpötila 26°C
Kosteus 24%
Ilmanpaine 1005 hPa
Näkyvyys 10 km tai enemmän
ei pilviä alle 1500 m:ssä eikä cumulonimbus-pilviä

METAR: OKBK 202300Z 17014KT CAVOK 26/04 Q1005 NOSIG

Aika: 02:57 (23:57 UTC)

Sääennuste

Tämä raportti tehtiin 19 tuntia ja 12 minuuttia sitten, kello 04.45 UTC
Ennuste voimassa 20. päivästä klo 06 UTC - 21. päivään klo 12 UTC
Tuuli 10 kn etelästä/kaakosta puuskistuen 20 kn:hen
Näkyvyys: 7000 m
selkeää
Ajoittain
20. päivästä klo 12 UTC - 20. päivään klo 20 UTC
Näkyvyys: 3000 m
pölymyrsky

TAF: OKBK 200445Z 2006/2112 16010G20KT 7000 SKC TEMPO 2012/2020 3000 BLDU

Säähavainnot ja -ennusteet yli 4000 lentoasemalta (METAR- ja TAF-raportit).

Käytössä olevat sääasemat on merkitty karttaan keltaisilla ja punaisilla pisteillä.

Aseta hiiri pisteen päälle nähdäksesi sääaseman nimen.

Klikkaa sitten nähdäksesi säähavainnot ja -ennusteet.

Kartan vaihtaminen: klikkaa mustalla rastilla varustettuja vihreitä pisteitä, niin voit zoomata sisään; viivalla varustettua vihreää pistettä, niin voit zoomata ulos tai vihreitä nuolia, niin pääset viereisille kartoille.


METAR-TAF: